Archimede — IXZR — position and weather

sailwx.info

Track history (hours):
 
Tides and Currents Weather Stations Pressure Air Temp Water Temp Dewpoint Dewpoint Depression Visibility Wind Speed Wind Dir Waves Ship Positions

Archimede

Last reported at 2015-Aug-02 13:33 UTC. Time now 2015-Aug-02 14:25 UTC.
Position N 38°13' E 015°38'.

; draft 3.1 m.

Type: Passenger vessel. MMSI: 247054700.

Date/timePositionNaut miles runAvg speedWind from/ knotsBaromVisibWave heightAir tempDewpointWater temp
2015-Aug-02 13:33N 38°13' E 015°38'3 2.6
2015-Aug-02 12:34N 38°12' E 015°35'1 0.9
2015-Aug-02 11:33N 38°13' E 015°34'3 3.4
2015-Aug-02 10:34N 38°13' E 015°38'1 1.3
2015-Aug-02 09:33N 38°13' E 015°36'2 2.2
2015-Aug-02 08:33N 38°13' E 015°34'0 0.0
2015-Aug-02 07:33N 38°13' E 015°34'0 0.3
2015-Aug-02 06:33N 38°13' E 015°34'3 0.6
2015-Aug-02 01:30N 38°13' E 015°38'7 7.8
2015-Aug-02 00:33N 38°08' E 015°31'8 7.6
2015-Aug-01 23:33N 38°13' E 015°38'7 7.5
2015-Aug-01 22:33N 38°08' E 015°31'7 7.2
2015-Aug-01 21:34N 38°13' E 015°37'4 4.5
2015-Aug-01 20:34N 38°09' E 015°36'2 1.8
2015-Aug-01 19:34N 38°10' E 015°34'3 2.6
2015-Aug-01 18:34N 38°13' E 015°34'0 0.0
2015-Aug-01 17:33N 38°13' E 015°34'0 0.0
2015-Aug-01 16:33N 38°13' E 015°34'1 1.1
2015-Aug-01 15:33N 38°13' E 015°35'2 1.6
2015-Aug-01 14:33N 38°13' E 015°37'1 0.9
2015-Aug-01 13:33N 38°13' E 015°38'0 0.0
2015-Aug-01 12:34N 38°13' E 015°38'0 0.1
2015-Aug-01 11:34N 38°13' E 015°38'3 3.4
2015-Aug-01 10:33N 38°13' E 015°34'3 3.4
2015-Aug-01 09:33N 38°13' E 015°38'1 0.6
2015-Aug-01 08:33N 38°13' E 015°37'1 0.6
2015-Aug-01 07:34N 38°13' E 015°38'2 1.8
2015-Aug-01 06:33N 38°13' E 015°36'2 0.4
2015-Aug-01 01:33N 38°13' E 015°38'7 7.4
2015-Aug-01 00:33N 38°08' E 015°31'7 7.4
2015-Jul-31 23:33N 38°13' E 015°38'7 7.4
2015-Jul-31 22:33N 38°08' E 015°31'7 7.0
2015-Jul-31 21:33N 38°13' E 015°37'6 5.8
2015-Jul-31 20:33N 38°08' E 015°33'5 5.3
2015-Jul-31 19:33N 38°13' E 015°37'4 4.2
2015-Jul-31 18:33N 38°09' E 015°36'2 1.8
2015-Jul-31 17:33N 38°10' E 015°35'2 1.8
2015-Jul-31 16:33N 38°09' E 015°37'2 2.0
2015-Jul-31 15:33N 38°10' E 015°34'4 4.3
2015-Jul-31 14:33N 38°13' E 015°38'7 7.5
2015-Jul-31 13:33N 38°08' E 015°31'7 7.5
2015-Jul-31 12:34N 38°13' E 015°38'5 4.9
2015-Jul-31 11:34N 38°09' E 015°36'3 3.2
2015-Jul-31 10:33N 38°12' E 015°36'2 1.7
2015-Jul-31 09:34N 38°11' E 015°37'2 2.3
2015-Jul-31 08:33N 38°10' E 015°34'2 1.8
2015-Jul-31 07:33N 38°10' E 015°36'2 1.5
2015-Jul-31 06:33N 38°10' E 015°35'4 4.0
2015-Jul-31 05:34N 38°13' E 015°38'0 0.0
2015-Jul-31 01:33N 38°13' E 015°38'7 7.4
2015-Jul-31 00:33N 38°08' E 015°31'7 7.4
2015-Jul-30 23:33N 38°13' E 015°38'7 7.4
2015-Jul-30 22:33N 38°08' E 015°31'7 7.5
2015-Jul-30 21:33N 38°13' E 015°38'7 7.5
2015-Jul-30 20:34N 38°08' E 015°31'7 7.5
2015-Jul-30 19:33N 38°13' E 015°38'5 4.8
2015-Jul-30 18:33N 38°09' E 015°36'1 1.5
2015-Jul-30 17:33N 38°10' E 015°35'2 1.8
2015-Jul-30 16:33N 38°11' E 015°37'4 3.7
2015-Jul-30 15:33N 38°09' E 015°34'6 5.7
2015-Jul-30 14:33N 38°13' E 015°38'8 7.5
2015-Jul-30 13:33N 38°08' E 015°31'8 7.5
2015-Jul-30 12:33N 38°13' E 015°38'6 5.5
2015-Jul-30 11:33N 38°09' E 015°35'3 3.1
2015-Jul-30 10:33N 38°12' E 015°36'2 2.1
2015-Jul-30 09:33N 38°10' E 015°36'2 1.7
2015-Jul-30 08:34N 38°10' E 015°34'2 1.8
2015-Jul-30 07:33N 38°10' E 015°37'2 1.7
2015-Jul-30 06:33N 38°11' E 015°35'4 3.7
2015-Jul-30 05:34N 38°13' E 015°38'2 0.5
2015-Jul-30 01:33N 38°11' E 015°37'4 3.6
2015-Jul-30 00:33N 38°09' E 015°34'4 4.2
2015-Jul-29 23:33N 38°12' E 015°37'6 6.2
2015-Jul-29 22:33N 38°08' E 015°32'7 7.2
2015-Jul-29 21:33N 38°13' E 015°38'7 7.3
2015-Jul-29 20:33N 38°08' E 015°31'7 6.8
2015-Jul-29 19:33N 38°13' E 015°37'5 4.6
2015-Jul-29 18:34N 38°09' E 015°36'2 1.8
2015-Jul-29 17:33N 38°10' E 015°35'3 3.0
2015-Jul-29 16:33N 38°13' E 015°37'6 6.1
2015-Jul-29 15:34N 38°08' E 015°32'7 7.0
2015-Jul-29 14:33N 38°13' E 015°38'7 7.5
2015-Jul-29 13:34N 38°08' E 015°31'7 7.5
2015-Jul-29 12:33N 38°13' E 015°38'7 7.5
2015-Jul-29 11:33N 38°08' E 015°31'7 7.5
2015-Jul-29 10:33N 38°13' E 015°38'6 5.9
2015-Jul-29 09:34N 38°09' E 015°33'5 4.9
2015-Jul-29 08:34N 38°13' E 015°37'4 4.3
2015-Jul-29 07:34N 38°09' E 015°35'2 2.0
2015-Jul-29 06:34N 38°11' E 015°35'3 0.6
2015-Jul-29 01:15N 38°13' E 015°38'6 8.5
2015-Jul-29 00:33N 38°08' E 015°34'6 5.9
2015-Jul-28 23:33N 38°13' E 015°38'7 6.6
2015-Jul-28 22:33N 38°08' E 015°33'6 6.2
2015-Jul-28 21:33N 38°13' E 015°37'6 5.9
2015-Jul-28 20:33N 38°08' E 015°33'5 5.4
2015-Jul-28 19:33N 38°13' E 015°36'4 4.1
2015-Jul-28 18:33N 38°09' E 015°36'2 2.2
2015-Jul-28 17:33N 38°11' E 015°35'2 2.2
2015-Jul-28 16:33N 38°09' E 015°36'2 1.8
2015-Jul-28 15:33N 38°10' E 015°35'2 2.0
2015-Jul-28 14:33N 38°11' E 015°37'4 4.2
2015-Jul-28 13:33N 38°08' E 015°33'5 4.7
2015-Jul-28 12:33N 38°08' E 015°39'6 6.0
2015-Jul-28 11:33N 38°08' E 015°31'6 6.0
2015-Jul-28 10:33N 38°08' E 015°39'2 2.1
2015-Jul-28 09:33N 38°08' E 015°36'2 2.4
2015-Jul-28 08:33N 38°09' E 015°34'5 5.1
2015-Jul-28 07:33N 38°13' E 015°38'3 3.4
2015-Jul-28 06:34N 38°13' E 015°34'0 0.0
2015-Jul-28 05:34N 38°13' E 015°34'0 0.0
2015-Jul-28 02:33N 38°13' E 015°34'3 2.7
2015-Jul-28 01:33N 38°13' E 015°37'2 2.0
2015-Jul-28 00:33N 38°13' E 015°35'3 2.6
2015-Jul-27 23:33N 38°13' E 015°38'7 7.4
2015-Jul-27 22:33N 38°08' E 015°31'8 7.5
2015-Jul-27 21:33N 38°13' E 015°38'7 6.8
2015-Jul-27 20:34N 38°08' E 015°33'6 6.0
2015-Jul-27 19:33N 38°13' E 015°37'5 5.1
2015-Jul-27 18:33N 38°09' E 015°34'4 4.4
2015-Jul-27 17:33N 38°13' E 015°36'4 4.3
2015-Jul-27 16:34N 38°09' E 015°35'2 2.1
2015-Jul-27 15:34N 38°11' E 015°35'4 3.6
2015-Jul-27 14:34N 38°13' E 015°38'7 7.4
2015-Jul-27 13:33N 38°08' E 015°31'7 7.4
2015-Jul-27 12:34N 38°13' E 015°38'7 7.3
2015-Jul-27 11:33N 38°08' E 015°32'7 7.4
2015-Jul-27 10:33N 38°13' E 015°38'5 5.3
2015-Jul-27 09:33N 38°09' E 015°34'2 2.5
2015-Jul-27 08:33N 38°11' E 015°35'3 2.9
2015-Jul-27 07:34N 38°13' E 015°38'3 3.4
2015-Jul-27 06:34N 38°13' E 015°34'0 0.0
2015-Jul-27 05:34N 38°13' E 015°34'0 0.0
2015-Jul-26 00:22N 38°13' E 015°34'3 3.6
2015-Jul-25 23:33N 38°11' E 015°37'3 3.0
2015-Jul-25 22:33N 38°09' E 015°34'5 5.0
2015-Jul-25 21:33N 38°13' E 015°38'7 7.4
2015-Jul-25 20:33N 38°08' E 015°32'7 7.4
2015-Jul-25 19:33N 38°13' E 015°38'5 5.3
2015-Jul-25 18:33N 38°09' E 015°34'4 3.8
2015-Jul-25 17:33N 38°12' E 015°36'4 3.6
2015-Jul-25 16:33N 38°09' E 015°35'2 1.8
2015-Jul-25 15:33N 38°11' E 015°35'2 2.3
2015-Jul-25 14:33N 38°12' E 015°37'6 5.6
2015-Jul-25 13:33N 38°08' E 015°32'7 6.9
2015-Jul-25 12:33N 38°13' E 015°38'6 6.0
2015-Jul-25 11:33N 38°08' E 015°34'4 4.2
2015-Jul-25 10:33N 38°12' E 015°36'4 3.7
2015-Jul-25 09:33N 38°09' E 015°35'2 2.3
2015-Jul-25 08:33N 38°11' E 015°35'2 2.3
2015-Jul-25 07:33N 38°09' E 015°36'3 2.7
2015-Jul-25 06:33N 38°11' E 015°35'3 0.5
2015-Jul-25 01:10N 38°13' E 015°38'6 9.2
2015-Jul-25 00:34N 38°09' E 015°34'5 5.1
2015-Jul-24 23:33N 38°13' E 015°37'7 6.7
2015-Jul-24 22:33N 38°08' E 015°32'7 7.0
2015-Jul-24 21:33N 38°13' E 015°37'7 6.7
2015-Jul-24 20:33N 38°08' E 015°32'7 7.3
2015-Jul-24 19:33N 38°13' E 015°38'6 5.6
2015-Jul-24 18:33N 38°09' E 015°34'4 4.2
2015-Jul-24 17:33N 38°13' E 015°36'4 3.8
2015-Jul-24 16:33N 38°09' E 015°35'2 1.6
2015-Jul-24 15:33N 38°11' E 015°35'3 2.7
2015-Jul-24 14:33N 38°12' E 015°37'6 5.7
2015-Jul-24 13:33N 38°08' E 015°32'7 7.0
2015-Jul-24 12:33N 38°13' E 015°38'5 4.9
2015-Jul-24 11:33N 38°09' E 015°35'3 2.6
2015-Jul-24 10:33N 38°11' E 015°35'3 2.8
2015-Jul-24 09:33N 38°09' E 015°35'3 3.0
2015-Jul-24 08:33N 38°12' E 015°35'3 2.8
2015-Jul-24 07:33N 38°09' E 015°36'2 2.2
2015-Jul-24 06:33N 38°11' E 015°35'3 0.6
2015-Jul-24 01:12N 38°13' E 015°38'5 8.4
2015-Jul-24 00:33N 38°09' E 015°34'5 4.6
2015-Jul-23 23:33N 38°13' E 015°36'5 4.9
2015-Jul-23 22:33N 38°08' E 015°34'6 5.8
2015-Jul-23 21:33N 38°14' E 015°37'7 7.4
2015-Jul-23 20:33N 38°08' E 015°31'7 7.4
2015-Jul-23 19:33N 38°13' E 015°38'6 5.7
2015-Jul-23 18:33N 38°09' E 015°33'4 4.2
2015-Jul-23 17:33N 38°12' E 015°36'3 3.3
2015-Jul-23 16:33N 38°09' E 015°35'1 1.1
2015-Jul-23 15:33N 38°10' E 015°34'1 1.5
2015-Jul-23 14:33N 38°10' E 015°36'2 1.7
2015-Jul-23 13:33N 38°10' E 015°34'  
Track history (hours):
 
Tides and Currents Weather Stations Pressure Air Temp Water Temp Dewpoint Dewpoint Depression Visibility Wind Speed Wind Dir Waves Ship Positions

Archimede

Last reported at 2015-Aug-02 13:33 UTC. Time now 2015-Aug-02 14:25 UTC.
Position N 38°13' E 015°38'.

; draft 3.1 m.

Type: Passenger vessel. MMSI: 247054700.

Date/timePositionNaut miles runAvg speedWind from/ knotsBaromVisibWave heightAir tempDewpointWater temp
2015-Aug-02 13:33N 38°13' E 015°38'3 2.6
2015-Aug-02 12:34N 38°12' E 015°35'1 0.9
2015-Aug-02 11:33N 38°13' E 015°34'3 3.4
2015-Aug-02 10:34N 38°13' E 015°38'1 1.3
2015-Aug-02 09:33N 38°13' E 015°36'2 2.2
2015-Aug-02 08:33N 38°13' E 015°34'0 0.0
2015-Aug-02 07:33N 38°13' E 015°34'0 0.3
2015-Aug-02 06:33N 38°13' E 015°34'3 0.6
2015-Aug-02 01:30N 38°13' E 015°38'7 7.8
2015-Aug-02 00:33N 38°08' E 015°31'8 7.6
2015-Aug-01 23:33N 38°13' E 015°38'7 7.5
2015-Aug-01 22:33N 38°08' E 015°31'7 7.2
2015-Aug-01 21:34N 38°13' E 015°37'4 4.5
2015-Aug-01 20:34N 38°09' E 015°36'2 1.8
2015-Aug-01 19:34N 38°10' E 015°34'3 2.6
2015-Aug-01 18:34N 38°13' E 015°34'0 0.0
2015-Aug-01 17:33N 38°13' E 015°34'0 0.0
2015-Aug-01 16:33N 38°13' E 015°34'1 1.1
2015-Aug-01 15:33N 38°13' E 015°35'2 1.6
2015-Aug-01 14:33N 38°13' E 015°37'1 0.9
2015-Aug-01 13:33N 38°13' E 015°38'0 0.0
2015-Aug-01 12:34N 38°13' E 015°38'0 0.1
2015-Aug-01 11:34N 38°13' E 015°38'3 3.4
2015-Aug-01 10:33N 38°13' E 015°34'3 3.4
2015-Aug-01 09:33N 38°13' E 015°38'1 0.6
2015-Aug-01 08:33N 38°13' E 015°37'1 0.6
2015-Aug-01 07:34N 38°13' E 015°38'2 1.8
2015-Aug-01 06:33N 38°13' E 015°36'2 0.4
2015-Aug-01 01:33N 38°13' E 015°38'7 7.4
2015-Aug-01 00:33N 38°08' E 015°31'7 7.4
2015-Jul-31 23:33N 38°13' E 015°38'7 7.4
2015-Jul-31 22:33N 38°08' E 015°31'7 7.0
2015-Jul-31 21:33N 38°13' E 015°37'6 5.8
2015-Jul-31 20:33N 38°08' E 015°33'5 5.3
2015-Jul-31 19:33N 38°13' E 015°37'4 4.2
2015-Jul-31 18:33N 38°09' E 015°36'2 1.8
2015-Jul-31 17:33N 38°10' E 015°35'2 1.8
2015-Jul-31 16:33N 38°09' E 015°37'2 2.0
2015-Jul-31 15:33N 38°10' E 015°34'4 4.3
2015-Jul-31 14:33N 38°13' E 015°38'7 7.5
2015-Jul-31 13:33N 38°08' E 015°31'7 7.5
2015-Jul-31 12:34N 38°13' E 015°38'5 4.9
2015-Jul-31 11:34N 38°09' E 015°36'3 3.2
2015-Jul-31 10:33N 38°12' E 015°36'2 1.7
2015-Jul-31 09:34N 38°11' E 015°37'2 2.3
2015-Jul-31 08:33N 38°10' E 015°34'2 1.8
2015-Jul-31 07:33N 38°10' E 015°36'2 1.5
2015-Jul-31 06:33N 38°10' E 015°35'4 4.0
2015-Jul-31 05:34N 38°13' E 015°38'0 0.0
2015-Jul-31 01:33N 38°13' E 015°38'7 7.4
2015-Jul-31 00:33N 38°08' E 015°31'7 7.4
2015-Jul-30 23:33N 38°13' E 015°38'7 7.4
2015-Jul-30 22:33N 38°08' E 015°31'7 7.5
2015-Jul-30 21:33N 38°13' E 015°38'7 7.5
2015-Jul-30 20:34N 38°08' E 015°31'7 7.5
2015-Jul-30 19:33N 38°13' E 015°38'5 4.8
2015-Jul-30 18:33N 38°09' E 015°36'1 1.5
2015-Jul-30 17:33N 38°10' E 015°35'2 1.8
2015-Jul-30 16:33N 38°11' E 015°37'4 3.7
2015-Jul-30 15:33N 38°09' E 015°34'6 5.7
2015-Jul-30 14:33N 38°13' E 015°38'8 7.5
2015-Jul-30 13:33N 38°08' E 015°31'8 7.5
2015-Jul-30 12:33N 38°13' E 015°38'6 5.5
2015-Jul-30 11:33N 38°09' E 015°35'3 3.1
2015-Jul-30 10:33N 38°12' E 015°36'2 2.1
2015-Jul-30 09:33N 38°10' E 015°36'2 1.7
2015-Jul-30 08:34N 38°10' E 015°34'2 1.8
2015-Jul-30 07:33N 38°10' E 015°37'2 1.7
2015-Jul-30 06:33N 38°11' E 015°35'4 3.7
2015-Jul-30 05:34N 38°13' E 015°38'2 0.5
2015-Jul-30 01:33N 38°11' E 015°37'4 3.6
2015-Jul-30 00:33N 38°09' E 015°34'4 4.2
2015-Jul-29 23:33N 38°12' E 015°37'6 6.2
2015-Jul-29 22:33N 38°08' E 015°32'7 7.2
2015-Jul-29 21:33N 38°13' E 015°38'7 7.3
2015-Jul-29 20:33N 38°08' E 015°31'7 6.8
2015-Jul-29 19:33N 38°13' E 015°37'5 4.6
2015-Jul-29 18:34N 38°09' E 015°36'2 1.8
2015-Jul-29 17:33N 38°10' E 015°35'3 3.0
2015-Jul-29 16:33N 38°13' E 015°37'6 6.1
2015-Jul-29 15:34N 38°08' E 015°32'7 7.0
2015-Jul-29 14:33N 38°13' E 015°38'7 7.5
2015-Jul-29 13:34N 38°08' E 015°31'7 7.5
2015-Jul-29 12:33N 38°13' E 015°38'7 7.5
2015-Jul-29 11:33N 38°08' E 015°31'7 7.5
2015-Jul-29 10:33N 38°13' E 015°38'6 5.9
2015-Jul-29 09:34N 38°09' E 015°33'5 4.9
2015-Jul-29 08:34N 38°13' E 015°37'4 4.3
2015-Jul-29 07:34N 38°09' E 015°35'2 2.0
2015-Jul-29 06:34N 38°11' E 015°35'3 0.6
2015-Jul-29 01:15N 38°13' E 015°38'6 8.5
2015-Jul-29 00:33N 38°08' E 015°34'6 5.9
2015-Jul-28 23:33N 38°13' E 015°38'7 6.6
2015-Jul-28 22:33N 38°08' E 015°33'6 6.2
2015-Jul-28 21:33N 38°13' E 015°37'6 5.9
2015-Jul-28 20:33N 38°08' E 015°33'5 5.4
2015-Jul-28 19:33N 38°13' E 015°36'4 4.1
2015-Jul-28 18:33N 38°09' E 015°36'2 2.2
2015-Jul-28 17:33N 38°11' E 015°35'2 2.2
2015-Jul-28 16:33N 38°09' E 015°36'2 1.8
2015-Jul-28 15:33N 38°10' E 015°35'2 2.0
2015-Jul-28 14:33N 38°11' E 015°37'4 4.2
2015-Jul-28 13:33N 38°08' E 015°33'5 4.7
2015-Jul-28 12:33N 38°08' E 015°39'6 6.0
2015-Jul-28 11:33N 38°08' E 015°31'6 6.0
2015-Jul-28 10:33N 38°08' E 015°39'2 2.1
2015-Jul-28 09:33N 38°08' E 015°36'2 2.4
2015-Jul-28 08:33N 38°09' E 015°34'5 5.1
2015-Jul-28 07:33N 38°13' E 015°38'3 3.4
2015-Jul-28 06:34N 38°13' E 015°34'0 0.0
2015-Jul-28 05:34N 38°13' E 015°34'0 0.0
2015-Jul-28 02:33N 38°13' E 015°34'3 2.7
2015-Jul-28 01:33N 38°13' E 015°37'2 2.0
2015-Jul-28 00:33N 38°13' E 015°35'3 2.6
2015-Jul-27 23:33N 38°13' E 015°38'7 7.4
2015-Jul-27 22:33N 38°08' E 015°31'8 7.5
2015-Jul-27 21:33N 38°13' E 015°38'7 6.8
2015-Jul-27 20:34N 38°08' E 015°33'6 6.0
2015-Jul-27 19:33N 38°13' E 015°37'5 5.1
2015-Jul-27 18:33N 38°09' E 015°34'4 4.4
2015-Jul-27 17:33N 38°13' E 015°36'4 4.3
2015-Jul-27 16:34N 38°09' E 015°35'2 2.1
2015-Jul-27 15:34N 38°11' E 015°35'4 3.6
2015-Jul-27 14:34N 38°13' E 015°38'7 7.4
2015-Jul-27 13:33N 38°08' E 015°31'7 7.4
2015-Jul-27 12:34N 38°13' E 015°38'7 7.3
2015-Jul-27 11:33N 38°08' E 015°32'7 7.4
2015-Jul-27 10:33N 38°13' E 015°38'5 5.3
2015-Jul-27 09:33N 38°09' E 015°34'2 2.5
2015-Jul-27 08:33N 38°11' E 015°35'3 2.9
2015-Jul-27 07:34N 38°13' E 015°38'3 3.4
2015-Jul-27 06:34N 38°13' E 015°34'0 0.0
2015-Jul-27 05:34N 38°13' E 015°34'0 0.0
2015-Jul-26 00:22N 38°13' E 015°34'3 3.6
2015-Jul-25 23:33N 38°11' E 015°37'3 3.0
2015-Jul-25 22:33N 38°09' E 015°34'5 5.0
2015-Jul-25 21:33N 38°13' E 015°38'7 7.4
2015-Jul-25 20:33N 38°08' E 015°32'7 7.4
2015-Jul-25 19:33N 38°13' E 015°38'5 5.3
2015-Jul-25 18:33N 38°09' E 015°34'4 3.8
2015-Jul-25 17:33N 38°12' E 015°36'4 3.6
2015-Jul-25 16:33N 38°09' E 015°35'2 1.8
2015-Jul-25 15:33N 38°11' E 015°35'2 2.3
2015-Jul-25 14:33N 38°12' E 015°37'6 5.6
2015-Jul-25 13:33N 38°08' E 015°32'7 6.9
2015-Jul-25 12:33N 38°13' E 015°38'6 6.0
2015-Jul-25 11:33N 38°08' E 015°34'4 4.2
2015-Jul-25 10:33N 38°12' E 015°36'4 3.7
2015-Jul-25 09:33N 38°09' E 015°35'2 2.3
2015-Jul-25 08:33N 38°11' E 015°35'2 2.3
2015-Jul-25 07:33N 38°09' E 015°36'3 2.7
2015-Jul-25 06:33N 38°11' E 015°35'3 0.5
2015-Jul-25 01:10N 38°13' E 015°38'6 9.2
2015-Jul-25 00:34N 38°09' E 015°34'5 5.1
2015-Jul-24 23:33N 38°13' E 015°37'7 6.7
2015-Jul-24 22:33N 38°08' E 015°32'7 7.0
2015-Jul-24 21:33N 38°13' E 015°37'7 6.7
2015-Jul-24 20:33N 38°08' E 015°32'7 7.3
2015-Jul-24 19:33N 38°13' E 015°38'6 5.6
2015-Jul-24 18:33N 38°09' E 015°34'4 4.2
2015-Jul-24 17:33N 38°13' E 015°36'4 3.8
2015-Jul-24 16:33N 38°09' E 015°35'2 1.6
2015-Jul-24 15:33N 38°11' E 015°35'3 2.7
2015-Jul-24 14:33N 38°12' E 015°37'6 5.7
2015-Jul-24 13:33N 38°08' E 015°32'7 7.0
2015-Jul-24 12:33N 38°13' E 015°38'5 4.9
2015-Jul-24 11:33N 38°09' E 015°35'3 2.6
2015-Jul-24 10:33N 38°11' E 015°35'3 2.8
2015-Jul-24 09:33N 38°09' E 015°35'3 3.0
2015-Jul-24 08:33N 38°12' E 015°35'3 2.8
2015-Jul-24 07:33N 38°09' E 015°36'2 2.2
2015-Jul-24 06:33N 38°11' E 015°35'3 0.6
2015-Jul-24 01:12N 38°13' E 015°38'5 8.4
2015-Jul-24 00:33N 38°09' E 015°34'5 4.6
2015-Jul-23 23:33N 38°13' E 015°36'5 4.9
2015-Jul-23 22:33N 38°08' E 015°34'6 5.8
2015-Jul-23 21:33N 38°14' E 015°37'7 7.4
2015-Jul-23 20:33N 38°08' E 015°31'7 7.4
2015-Jul-23 19:33N 38°13' E 015°38'6 5.7
2015-Jul-23 18:33N 38°09' E 015°33'4 4.2
2015-Jul-23 17:33N 38°12' E 015°36'3 3.3
2015-Jul-23 16:33N 38°09' E 015°35'1 1.1
2015-Jul-23 15:33N 38°10' E 015°34'1 1.5
2015-Jul-23 14:33N 38°10' E 015°36'2 1.7
2015-Jul-23 13:33N 38°10' E 015°34'  

Dump ship's entire track history